createdAt,value
2023-04-06T00:00:04.999Z,4.27
2023-04-06T00:02:32.989Z,11.13
2023-04-06T00:05:00.894Z,12.90
2023-04-06T00:07:29.266Z,13.37
2023-04-06T00:09:57.262Z,12.30
2023-04-06T00:12:25.402Z,8.63
2023-04-06T00:14:53.275Z,14.80
2023-04-06T00:17:22.522Z,23.57
2023-04-06T00:19:50.413Z,8.57
2023-04-06T00:22:18.303Z,12.20
2023-04-06T00:24:46.258Z,21.03
2023-04-06T00:27:14.318Z,8.83
2023-04-06T00:29:42.174Z,24.93
2023-04-06T00:32:10.620Z,13.87
2023-04-06T00:34:39.952Z,22.83
2023-04-06T00:37:07.874Z,33.23
2023-04-06T00:39:36.153Z,16.03
2023-04-06T00:42:04.012Z,19.20
2023-04-06T00:44:32.991Z,26.00
2023-04-06T00:47:00.877Z,21.30
2023-04-06T00:49:28.761Z,18.17
2023-04-06T00:51:58.041Z,23.23
2023-04-06T00:54:25.924Z,25.73
2023-04-06T00:56:53.832Z,34.53
2023-04-06T00:59:21.772Z,40.67
2023-04-06T01:01:50.318Z,35.00
2023-04-06T01:04:18.234Z,24.40
2023-04-06T01:06:46.427Z,21.00
2023-04-06T01:09:15.720Z,27.17
2023-04-06T01:11:43.634Z,29.67
2023-04-06T01:14:11.505Z,27.83
2023-04-06T01:16:39.391Z,29.23
2023-04-06T01:19:10.284Z,27.73
2023-04-06T01:21:38.445Z,27.90
2023-04-06T01:24:08.946Z,22.03
2023-04-06T01:26:36.980Z,44.30
2023-04-06T01:29:05.057Z,20.17
2023-04-06T01:31:33.005Z,33.63
2023-04-06T01:34:01.137Z,38.33
2023-04-06T01:36:29.020Z,36.53
2023-04-06T01:38:56.934Z,41.80
2023-04-06T01:41:26.247Z,41.77
2023-04-06T01:43:55.579Z,38.47
2023-04-06T01:46:23.589Z,30.83
2023-04-06T01:48:51.489Z,30.10
2023-04-06T01:51:19.457Z,32.83
2023-04-06T01:53:49.294Z,21.73
2023-04-06T01:56:17.162Z,9.20
2023-04-06T01:58:46.518Z,34.07
2023-04-06T02:01:14.471Z,30.10
2023-04-06T02:03:42.420Z,24.27
2023-04-06T02:06:10.451Z,40.67
2023-04-06T02:08:38.367Z,25.57
2023-04-06T02:11:06.328Z,37.87
2023-04-06T02:13:34.230Z,37.70
2023-04-06T02:16:03.981Z,35.70
2023-04-06T02:18:32.639Z,36.37
2023-04-06T02:21:00.550Z,43.43
2023-04-06T02:23:28.491Z,28.90
2023-04-06T02:25:56.366Z,38.53
2023-04-06T02:28:24.355Z,44.77
2023-04-06T02:30:52.324Z,26.63
2023-04-06T02:33:21.606Z,33.03
2023-04-06T02:35:49.531Z,26.13
2023-04-06T02:38:17.539Z,35.43
2023-04-06T02:40:45.515Z,38.43
2023-04-06T02:43:13.426Z,32.63
2023-04-06T02:45:41.322Z,33.30
2023-04-06T02:48:09.226Z,27.03
2023-04-06T02:50:38.476Z,27.87
2023-04-06T02:53:06.547Z,44.80
2023-04-06T02:55:34.554Z,39.90
2023-04-06T02:58:02.445Z,39.63
2023-04-06T03:00:30.361Z,49.03
2023-04-06T03:02:58.425Z,24.37
2023-04-06T03:05:26.563Z,27.07
2023-04-06T03:07:55.830Z,52.67
2023-04-06T03:10:23.702Z,33.27
2023-04-06T03:12:51.592Z,25.60
2023-04-06T03:15:19.637Z,37.23
2023-04-06T03:17:47.559Z,41.00
2023-04-06T03:20:15.800Z,36.23
2023-04-06T03:22:43.713Z,37.43
2023-04-06T03:25:13.000Z,40.93
2023-04-06T03:27:41.329Z,36.47
2023-04-06T03:30:10.018Z,40.00
2023-04-06T03:32:38.005Z,34.10
2023-04-06T03:35:06.678Z,45.63
2023-04-06T03:37:34.589Z,33.70
2023-04-06T03:40:02.488Z,25.40
2023-04-06T03:42:31.897Z,36.93
2023-04-06T03:44:59.794Z,29.47
2023-04-06T03:47:27.683Z,43.00
2023-04-06T03:49:56.634Z,37.67
2023-04-06T03:52:24.600Z,33.83
2023-04-06T03:54:52.442Z,37.67
2023-04-06T03:57:20.540Z,52.53
2023-04-06T03:59:49.849Z,38.13
2023-04-06T04:02:17.953Z,35.47
2023-04-06T04:04:46.020Z,40.30
2023-04-06T04:07:13.921Z,36.73
2023-04-06T04:09:41.816Z,36.67
2023-04-06T04:12:09.692Z,24.70
2023-04-06T04:14:37.663Z,27.57
2023-04-06T04:17:06.946Z,28.90
2023-04-06T04:19:34.852Z,39.00
2023-04-06T04:22:05.683Z,37.47
2023-04-06T04:24:33.624Z,28.43
2023-04-06T04:27:01.901Z,27.03
2023-04-06T04:29:29.844Z,34.00
2023-04-06T04:31:57.880Z,36.20
2023-04-06T04:34:27.198Z,34.90
2023-04-06T04:36:55.070Z,31.43
2023-04-06T04:39:22.962Z,34.03
2023-04-06T04:41:50.843Z,26.60
2023-04-06T04:44:18.865Z,29.73
2023-04-06T04:46:46.755Z,34.03
2023-04-06T04:49:14.683Z,26.63
2023-04-06T04:51:43.932Z,31.60
2023-04-06T04:54:11.795Z,32.07
2023-04-06T04:56:39.986Z,32.27
2023-04-06T04:59:08.148Z,39.37
2023-04-06T05:01:47.687Z,32.93
2023-04-06T05:04:22.059Z,32.20
2023-04-06T05:06:51.501Z,29.30
2023-04-06T05:09:19.594Z,19.97
2023-04-06T05:11:47.475Z,39.90
2023-04-06T05:14:16.730Z,39.70
2023-04-06T05:16:44.866Z,22.73
2023-04-06T05:19:13.206Z,30.40
2023-04-06T05:21:41.141Z,25.17
2023-04-06T05:24:10.633Z,44.07
2023-04-06T05:26:39.739Z,34.17
2023-04-06T05:29:07.892Z,31.40
2023-04-06T05:31:35.961Z,41.07
2023-04-06T05:34:03.886Z,36.00
2023-04-06T05:36:33.215Z,28.73
2023-04-06T05:39:01.093Z,46.33
2023-04-06T05:41:30.664Z,41.70
2023-04-06T05:43:58.643Z,33.97
2023-04-06T05:46:26.698Z,22.87
2023-04-06T05:48:54.638Z,35.07
2023-04-06T05:51:22.521Z,33.83
2023-04-06T05:53:50.409Z,45.30
2023-04-06T05:56:18.583Z,38.97
2023-04-06T05:58:48.069Z,33.67
2023-04-06T06:01:16.276Z,26.10
2023-04-06T06:03:44.170Z,26.77
2023-04-06T06:06:12.064Z,28.83
2023-04-06T06:08:39.945Z,24.00
2023-04-06T06:11:07.861Z,28.83
2023-04-06T06:13:35.786Z,21.43
2023-04-06T06:16:06.398Z,21.47
2023-04-06T06:18:34.434Z,20.17
2023-04-06T06:21:02.389Z,21.70
2023-04-06T06:23:30.260Z,18.73
2023-04-06T06:25:59.044Z,25.73
2023-04-06T06:28:27.375Z,17.90
2023-04-06T06:30:55.281Z,22.10
2023-04-06T06:33:24.669Z,17.10
2023-04-06T06:35:52.651Z,19.73
2023-04-06T06:38:22.180Z,21.53
2023-04-06T06:40:51.606Z,19.83
2023-04-06T06:43:19.543Z,16.43
2023-04-06T06:45:47.549Z,19.20
2023-04-06T06:48:15.544Z,17.90
2023-04-06T06:50:44.837Z,15.67
2023-04-06T06:53:12.786Z,14.73
2023-04-06T06:55:40.716Z,21.80
2023-04-06T06:58:08.612Z,12.50
2023-04-06T07:00:36.563Z,18.53
2023-04-06T07:03:04.547Z,14.87
2023-04-06T07:05:32.906Z,10.67
2023-04-06T07:08:02.197Z,19.33
2023-04-06T07:10:30.155Z,14.13
2023-04-06T07:12:59.561Z,21.87
2023-04-06T07:15:27.574Z,25.47
2023-04-06T07:17:56.829Z,13.07
2023-04-06T07:20:24.917Z,17.17
2023-04-06T07:22:52.914Z,14.30
2023-04-06T07:25:25.097Z,9.10
2023-04-06T07:27:53.697Z,16.07
2023-04-06T07:30:22.978Z,10.77
2023-04-06T07:32:50.989Z,9.80
2023-04-06T07:35:18.985Z,18.57
2023-04-06T07:37:46.898Z,13.57
2023-04-06T07:40:14.804Z,16.63
2023-04-06T07:42:44.127Z,13.40
2023-04-06T07:45:12.473Z,14.87
2023-04-06T07:47:40.385Z,9.83
2023-04-06T07:50:09.251Z,8.70
2023-04-06T07:52:38.437Z,10.00
2023-04-06T07:55:07.088Z,14.27
2023-04-06T07:57:34.979Z,10.03
2023-04-06T08:00:04.829Z,8.93
2023-04-06T08:02:36.915Z,10.03
2023-04-06T08:05:05.049Z,14.63
2023-04-06T08:07:33.005Z,9.43
2023-04-06T08:10:01.086Z,13.33
2023-04-06T08:12:29.088Z,19.67
2023-04-06T08:14:57.895Z,10.10
2023-04-06T08:17:31.459Z,13.37
2023-04-06T08:19:59.833Z,8.00
2023-04-06T08:22:27.709Z,11.40
2023-04-06T08:24:55.597Z,18.07
2023-04-06T08:27:23.535Z,12.00
2023-04-06T08:29:51.809Z,6.67
2023-04-06T08:32:19.741Z,8.07
2023-04-06T08:34:49.027Z,14.63
2023-04-06T08:37:16.950Z,8.57
2023-04-06T08:39:44.851Z,9.87
2023-04-06T08:42:15.569Z,16.77
2023-04-06T08:44:43.571Z,13.00
2023-04-06T08:47:11.463Z,16.60
2023-04-06T08:49:39.682Z,16.50
2023-04-06T08:52:10.299Z,11.87
2023-04-06T08:54:38.287Z,5.03
2023-04-06T08:57:06.693Z,15.87
2023-04-06T08:59:34.841Z,9.37
2023-04-06T09:02:03.073Z,21.43
2023-04-06T09:04:31.032Z,15.47
2023-04-06T09:06:59.003Z,6.90
2023-04-06T09:09:28.400Z,17.60
2023-04-06T09:11:56.930Z,11.47
2023-04-06T09:14:36.751Z,9.43
2023-04-06T09:17:04.698Z,8.93
2023-04-06T09:19:32.593Z,13.53
2023-04-06T09:22:04.925Z,6.97
2023-04-06T09:24:44.495Z,9.37
2023-04-06T09:27:12.402Z,7.10
2023-04-06T09:29:40.320Z,10.13
2023-04-06T09:32:08.912Z,10.47
2023-04-06T09:34:36.822Z,5.60
2023-04-06T09:37:24.359Z,24.17
2023-04-06T09:40:03.639Z,6.00
2023-04-06T09:42:31.684Z,14.77
2023-04-06T09:44:59.630Z,11.80
2023-04-06T09:47:29.490Z,16.40
2023-04-06T09:49:59.199Z,13.63
2023-04-06T09:52:28.596Z,6.67
2023-04-06T09:54:58.414Z,9.13
2023-04-06T09:57:28.059Z,15.23
2023-04-06T09:59:59.160Z,12.37
2023-04-06T10:02:30.528Z,7.40
2023-04-06T10:05:00.911Z,17.20
2023-04-06T10:07:28.884Z,8.77
2023-04-06T10:09:58.194Z,9.57
2023-04-06T10:12:26.131Z,7.60
2023-04-06T10:14:54.102Z,3.33
2023-04-06T10:17:22.099Z,11.17
2023-04-06T10:19:54.508Z,6.77
2023-04-06T10:22:27.254Z,8.00
2023-04-06T10:24:55.172Z,10.13
2023-04-06T10:27:31.250Z,11.93
2023-04-06T10:30:03.513Z,3.03
2023-04-06T10:32:36.824Z,6.90
2023-04-06T10:35:11.699Z,11.67
2023-04-06T10:37:52.774Z,13.43
2023-04-06T10:40:25.102Z,9.37
2023-04-06T10:42:55.132Z,9.50
2023-04-06T10:45:24.363Z,14.87
2023-04-06T10:47:53.119Z,14.13
2023-04-06T10:50:21.171Z,11.20
2023-04-06T10:52:49.141Z,14.50
2023-04-06T10:55:17.377Z,6.13
2023-04-06T10:57:45.392Z,6.10
2023-04-06T11:00:16.252Z,5.87
2023-04-06T11:02:44.197Z,8.47
2023-04-06T11:05:15.358Z,11.67
2023-04-06T11:07:43.438Z,12.40
2023-04-06T11:10:16.532Z,9.63
2023-04-06T11:12:46.532Z,6.37
2023-04-06T11:15:15.782Z,7.87
2023-04-06T11:17:43.706Z,3.37
2023-04-06T11:20:12.773Z,11.77
2023-04-06T11:22:50.670Z,2.03
2023-04-06T11:25:19.087Z,2.93
2023-04-06T11:27:47.696Z,6.10
2023-04-06T11:30:17.112Z,5.37
2023-04-06T11:32:45.610Z,5.67
2023-04-06T11:35:22.423Z,8.13
2023-04-06T11:37:51.193Z,5.40
2023-04-06T11:40:23.264Z,3.70
2023-04-06T11:42:54.566Z,3.43
2023-04-06T11:45:23.954Z,3.43
2023-04-06T11:47:58.024Z,2.33
2023-04-06T11:50:26.075Z,6.03
2023-04-06T11:53:00.510Z,3.50
2023-04-06T11:55:28.457Z,5.27
2023-04-06T11:57:56.385Z,5.37
2023-04-06T12:00:25.847Z,8.10
2023-04-06T12:02:53.948Z,7.00
2023-04-06T12:05:21.948Z,3.50
2023-04-06T12:07:49.879Z,5.77
2023-04-06T12:10:17.801Z,4.20
2023-04-06T12:12:45.944Z,4.77
2023-04-06T12:15:13.840Z,9.07
2023-04-06T12:17:43.196Z,11.83
2023-04-06T12:20:22.443Z,5.10
2023-04-06T12:22:54.136Z,6.47
2023-04-06T12:25:22.198Z,6.97
2023-04-06T12:27:50.128Z,8.17
2023-04-06T12:30:18.611Z,8.17
2023-04-06T12:32:50.411Z,4.43
2023-04-06T12:35:19.279Z,4.37
2023-04-06T12:37:47.240Z,2.80
2023-04-06T12:40:15.980Z,5.10
2023-04-06T12:42:43.932Z,5.97
2023-04-06T12:45:12.718Z,6.27
2023-04-06T12:47:40.777Z,4.43
2023-04-06T12:50:11.303Z,3.10
2023-04-06T12:52:39.292Z,5.03
2023-04-06T12:55:08.118Z,2.40
2023-04-06T12:57:36.354Z,4.10
2023-04-06T13:00:05.513Z,3.30
2023-04-06T13:02:34.977Z,4.60
2023-04-06T13:05:02.958Z,5.30
2023-04-06T13:07:32.245Z,4.63
2023-04-06T13:10:00.214Z,2.43
2023-04-06T13:12:28.270Z,7.20
2023-04-06T13:14:56.191Z,2.40
2023-04-06T13:17:24.109Z,3.87
2023-04-06T13:19:52.047Z,6.50
2023-04-06T13:22:20.088Z,6.37
2023-04-06T13:24:49.389Z,3.50
2023-04-06T13:27:17.293Z,4.80
2023-04-06T13:29:45.566Z,1.77
2023-04-06T13:32:13.693Z,2.13
2023-04-06T13:34:45.683Z,2.45
2023-04-06T13:37:14.469Z,3.92
2023-04-06T13:39:42.330Z,1.95
2023-04-06T13:42:12.126Z,4.63
2023-04-06T13:44:40.059Z,3.03
2023-04-06T13:47:08.068Z,1.73
2023-04-06T13:49:37.029Z,2.58
2023-04-06T13:52:05.160Z,4.70
2023-04-06T13:54:32.997Z,2.35
2023-04-06T13:57:01.894Z,7.32
2023-04-06T13:59:35.802Z,2.05
2023-04-06T14:02:03.925Z,5.07
2023-04-06T14:04:31.887Z,2.28
2023-04-06T14:06:59.950Z,8.13
2023-04-06T14:09:27.964Z,3.47
2023-04-06T14:11:56.086Z,3.47
2023-04-06T14:14:24.193Z,4.15
2023-04-06T14:16:53.541Z,3.03
2023-04-06T14:19:21.880Z,3.30
2023-04-06T14:21:50.567Z,7.25
2023-04-06T14:24:20.040Z,3.25
2023-04-06T14:26:48.728Z,1.75
2023-04-06T14:29:16.805Z,3.10
2023-04-06T14:31:44.686Z,1.65
2023-04-06T14:34:13.947Z,1.85
2023-04-06T14:36:41.974Z,1.65
2023-04-06T14:39:10.847Z,0.82
2023-04-06T14:41:38.752Z,2.50
2023-04-06T14:44:07.180Z,0.68
2023-04-06T14:46:35.168Z,3.17
2023-04-06T14:49:03.103Z,1.75
2023-04-06T14:51:32.396Z,2.95
2023-04-06T14:54:00.569Z,2.65
2023-04-06T14:56:28.434Z,1.73
2023-04-06T14:58:58.098Z,3.03
2023-04-06T15:01:26.120Z,4.57
2023-04-06T15:03:54.096Z,4.45
2023-04-06T15:06:22.595Z,2.75
2023-04-06T15:08:52.035Z,2.17
2023-04-06T15:11:19.916Z,5.13
2023-04-06T15:13:48.168Z,3.88
2023-04-06T15:16:16.621Z,2.55
2023-04-06T15:18:45.095Z,2.85
2023-04-06T15:21:13.243Z,2.13
2023-04-06T15:23:41.383Z,1.90
2023-04-06T15:26:10.661Z,6.57
2023-04-06T15:28:38.595Z,0.85
2023-04-06T15:31:24.452Z,1.42
2023-04-06T15:34:04.671Z,2.97
2023-04-06T15:36:32.542Z,1.38
2023-04-06T15:39:00.636Z,3.08
2023-04-06T15:41:29.968Z,5.45
2023-04-06T15:43:57.961Z,2.47
2023-04-06T15:46:28.238Z,3.15
2023-04-06T15:48:56.692Z,1.63
2023-04-06T15:51:25.225Z,2.05
2023-04-06T15:53:53.129Z,2.83
2023-04-06T15:56:21.075Z,2.92
2023-04-06T15:58:50.408Z,2.13
2023-04-06T16:01:19.077Z,1.40
2023-04-06T16:03:47.548Z,0.95
2023-04-06T16:06:15.532Z,2.42
2023-04-06T16:08:43.418Z,2.60
2023-04-06T16:11:11.770Z,1.75
2023-04-06T16:13:43.109Z,6.70
2023-04-06T16:16:14.249Z,4.60
2023-04-06T16:18:42.281Z,7.57
2023-04-06T16:21:10.777Z,3.70
2023-04-06T16:23:38.779Z,5.82
2023-04-06T16:26:12.958Z,4.22
2023-04-06T16:28:40.885Z,2.22
2023-04-06T16:31:08.812Z,2.28
2023-04-06T16:33:38.172Z,5.18
2023-04-06T16:36:06.813Z,4.18
2023-04-06T16:38:35.806Z,5.80
2023-04-06T16:41:03.924Z,2.65
2023-04-06T16:43:32.284Z,4.25
2023-04-06T16:46:00.634Z,1.65
2023-04-06T16:48:28.628Z,2.60
2023-04-06T16:50:57.985Z,3.67
2023-04-06T16:53:26.080Z,1.83
2023-04-06T16:55:54.228Z,3.65
2023-04-06T16:58:39.652Z,1.95
2023-04-06T17:01:07.595Z,3.90
2023-04-06T17:03:35.647Z,10.50
2023-04-06T17:06:05.320Z,2.90
2023-04-06T17:08:33.370Z,3.58
2023-04-06T17:11:04.661Z,7.10
2023-04-06T17:13:32.971Z,6.93
2023-04-06T17:16:00.948Z,6.28
2023-04-06T17:18:30.078Z,1.80
2023-04-06T17:20:58.371Z,1.92
2023-04-06T17:23:27.887Z,8.23
2023-04-06T17:25:57.575Z,7.32
2023-04-06T17:28:26.015Z,5.50
2023-04-06T17:30:54.005Z,2.40
2023-04-06T17:33:22.195Z,4.53
2023-04-06T17:35:50.130Z,3.13
2023-04-06T17:38:18.063Z,2.30
2023-04-06T17:40:47.341Z,5.93
2023-04-06T17:43:15.216Z,4.00
2023-04-06T17:45:43.129Z,3.10
2023-04-06T17:48:11.157Z,4.30
2023-04-06T17:50:40.022Z,3.27
2023-04-06T17:53:08.499Z,2.63
2023-04-06T17:55:36.441Z,2.13
2023-04-06T17:58:06.143Z,2.93
2023-04-06T18:00:34.041Z,4.00
2023-04-06T18:03:02.071Z,3.83
2023-04-06T18:05:30.115Z,4.93
2023-04-06T18:07:58.436Z,6.20
2023-04-06T18:10:26.401Z,4.23
2023-04-06T18:12:54.374Z,6.33
2023-04-06T18:15:23.857Z,5.67
2023-04-06T18:17:52.090Z,4.07
2023-04-06T18:20:20.091Z,5.23
2023-04-06T18:22:48.019Z,4.87
2023-04-06T18:25:15.946Z,3.37
2023-04-06T18:27:43.813Z,4.90
2023-04-06T18:30:14.096Z,7.90
2023-04-06T18:32:43.354Z,3.73
2023-04-06T18:35:11.709Z,3.63
2023-04-06T18:37:39.586Z,6.47
2023-04-06T18:40:08.782Z,5.57
2023-04-06T18:42:38.157Z,2.90
2023-04-06T18:45:07.197Z,9.83
2023-04-06T18:47:39.137Z,7.70
2023-04-06T18:50:09.332Z,6.13
2023-04-06T18:52:37.430Z,6.20
2023-04-06T18:55:06.408Z,3.40
2023-04-06T18:57:38.063Z,11.13
2023-04-06T19:00:07.442Z,2.57
2023-04-06T19:02:35.575Z,37.97
2023-04-06T19:05:03.884Z,91.03
2023-04-06T19:07:34.365Z,18.50
2023-04-06T19:10:02.720Z,10.90
2023-04-06T19:12:30.558Z,23.80
2023-04-06T19:15:08.124Z,30.33
2023-04-06T19:17:36.270Z,10.73
2023-04-06T19:20:04.208Z,16.90
2023-04-06T19:22:36.075Z,18.83
2023-04-06T19:25:04.070Z,17.23
2023-04-06T19:27:33.765Z,10.83
2023-04-06T19:30:01.696Z,18.37
2023-04-06T19:32:30.243Z,19.13
2023-04-06T19:34:59.561Z,12.00
2023-04-06T19:37:27.454Z,12.57
2023-04-06T19:39:56.713Z,10.50
2023-04-06T19:42:29.779Z,10.53
2023-04-06T19:44:58.576Z,9.87
2023-04-06T19:47:26.714Z,8.70
2023-04-06T19:49:54.651Z,8.07
2023-04-06T19:52:22.794Z,9.37
2023-04-06T19:54:50.646Z,7.03
2023-04-06T19:57:19.912Z,11.30
2023-04-06T19:59:47.843Z,11.67
2023-04-06T20:02:15.919Z,7.33
2023-04-06T20:04:44.080Z,10.27
2023-04-06T20:07:12.059Z,10.63
2023-04-06T20:09:39.973Z,5.87
2023-04-06T20:12:08.511Z,7.37
2023-04-06T20:14:38.830Z,13.67
2023-04-06T20:17:07.077Z,9.43
2023-04-06T20:19:35.452Z,13.97
2023-04-06T20:22:05.213Z,12.07
2023-04-06T20:24:33.775Z,11.20
2023-04-06T20:27:01.870Z,6.93
2023-04-06T20:29:29.832Z,11.07
2023-04-06T20:31:59.266Z,7.83
2023-04-06T20:34:28.995Z,11.03
2023-04-06T20:36:57.069Z,14.27
2023-04-06T20:39:25.118Z,21.20
2023-04-06T20:41:53.334Z,14.80
2023-04-06T20:44:22.033Z,10.90
2023-04-06T20:46:50.034Z,18.20
2023-04-06T20:49:22.165Z,14.07
2023-04-06T20:51:51.650Z,16.20
2023-04-06T20:54:20.228Z,8.33
2023-04-06T20:56:48.680Z,11.07
2023-04-06T20:59:17.168Z,13.33
2023-04-06T21:01:45.885Z,22.63
2023-04-06T21:04:13.992Z,15.27
2023-04-06T21:06:43.927Z,10.77
2023-04-06T21:09:12.125Z,15.40
2023-04-06T21:11:40.316Z,11.87
2023-04-06T21:14:08.714Z,9.37
2023-04-06T21:16:37.962Z,8.73
2023-04-06T21:19:05.936Z,9.53
2023-04-06T21:21:34.468Z,7.97
2023-04-06T21:24:04.391Z,9.97
2023-04-06T21:26:32.320Z,5.77
2023-04-06T21:29:07.695Z,10.13
2023-04-06T21:31:41.091Z,6.97
2023-04-06T21:34:15.222Z,10.53
2023-04-06T21:36:43.623Z,7.17
2023-04-06T21:39:13.400Z,9.10
2023-04-06T21:41:44.409Z,4.47
2023-04-06T21:44:13.321Z,6.07
2023-04-06T21:46:42.711Z,8.10
2023-04-06T21:49:13.035Z,6.90
2023-04-06T21:51:43.239Z,4.67
2023-04-06T21:54:13.458Z,3.13
2023-04-06T21:56:45.350Z,1.53
2023-04-06T21:59:13.829Z,4.93
2023-04-06T22:01:42.292Z,5.57
2023-04-06T22:04:21.176Z,5.40
2023-04-06T22:06:49.962Z,3.03
2023-04-06T22:09:20.253Z,2.43
2023-04-06T22:11:48.856Z,3.87
2023-04-06T22:14:21.762Z,5.20
2023-04-06T22:16:58.858Z,4.20
2023-04-06T22:19:27.618Z,4.83
2023-04-06T22:21:55.501Z,7.57
2023-04-06T22:24:24.760Z,11.50
2023-04-06T22:26:52.868Z,2.50
2023-04-06T22:29:20.713Z,5.23
2023-04-06T22:31:48.588Z,1.83
2023-04-06T22:34:26.323Z,12.87
2023-04-06T22:37:04.247Z,3.63
2023-04-06T22:39:37.305Z,13.83
2023-04-06T22:42:05.911Z,7.07
2023-04-06T22:44:39.305Z,4.83
2023-04-06T22:47:18.943Z,7.83
2023-04-06T22:49:47.422Z,4.97
2023-04-06T22:52:15.537Z,5.80
2023-04-06T22:54:44.982Z,3.97
2023-04-06T22:57:13.146Z,4.20
2023-04-06T22:59:41.124Z,3.50
2023-04-06T23:02:17.416Z,2.90
2023-04-06T23:04:48.602Z,3.30
2023-04-06T23:07:16.928Z,7.30
2023-04-06T23:09:50.552Z,2.57
2023-04-06T23:12:38.567Z,4.20
2023-04-06T23:15:18.740Z,5.97
2023-04-06T23:17:50.280Z,11.20
2023-04-06T23:20:19.719Z,3.37
2023-04-06T23:23:15.890Z,4.87
2023-04-06T23:25:55.707Z,7.47
2023-04-06T23:28:28.720Z,6.53
2023-04-06T23:31:05.882Z,8.50
2023-04-06T23:33:33.816Z,1.97
2023-04-06T23:36:01.840Z,4.43
2023-04-06T23:38:29.669Z,5.50
2023-04-06T23:40:58.953Z,3.97
2023-04-06T23:43:27.202Z,4.87
2023-04-06T23:45:55.129Z,1.87
2023-04-06T23:48:23.464Z,4.23
2023-04-06T23:50:52.659Z,3.30
2023-04-06T23:53:20.634Z,3.60
2023-04-06T23:55:48.554Z,4.77
2023-04-06T23:58:17.803Z,5.90
